createdAt,value
2022-10-19T00:01:23.992Z,12.31
2022-10-19T00:03:53.678Z,12.35
2022-10-19T00:06:25.820Z,12.39
2022-10-19T00:08:55.458Z,12.42
2022-10-19T00:11:23.784Z,12.41
2022-10-19T00:13:51.653Z,12.44
2022-10-19T00:16:19.645Z,12.44
2022-10-19T00:18:46.967Z,12.35
2022-10-19T00:21:17.441Z,12.33
2022-10-19T00:23:45.657Z,12.23
2022-10-19T00:26:13.177Z,12.15
2022-10-19T00:28:41.061Z,12.17
2022-10-19T00:31:14.185Z,12.15
2022-10-19T00:33:42.083Z,12.20
2022-10-19T00:36:23.059Z,12.16
2022-10-19T00:38:50.186Z,12.11
2022-10-19T00:41:18.589Z,12.06
2022-10-19T00:43:58.884Z,12.04
2022-10-19T00:46:28.041Z,12.14
2022-10-19T00:49:00.305Z,12.19
2022-10-19T00:51:29.186Z,12.19
2022-10-19T00:53:56.962Z,12.22
2022-10-19T00:56:24.391Z,12.22
2022-10-19T00:58:51.833Z,12.27
2022-10-19T01:01:20.633Z,12.28
2022-10-19T01:03:47.718Z,12.38
2022-10-19T01:06:15.935Z,12.37
2022-10-19T01:08:43.039Z,12.38
2022-10-19T01:11:24.939Z,12.47
2022-10-19T01:14:20.084Z,12.48
2022-10-19T01:17:35.484Z,12.50
2022-10-19T01:20:09.104Z,12.42
2022-10-19T01:22:45.222Z,12.39
2022-10-19T01:25:27.503Z,12.36
2022-10-19T01:28:22.355Z,12.42
2022-10-19T01:30:59.317Z,12.43
2022-10-19T01:33:32.141Z,12.45
2022-10-19T01:36:14.311Z,12.56
2022-10-19T01:38:46.317Z,12.60
2022-10-19T01:42:03.198Z,12.64
2022-10-19T01:44:39.371Z,12.58
2022-10-19T01:47:10.413Z,12.51
2022-10-19T01:49:50.026Z,12.53
2022-10-19T01:52:19.277Z,12.36
2022-10-19T01:54:49.788Z,12.24
2022-10-19T01:57:21.820Z,12.13
2022-10-19T01:59:49.564Z,12.05
2022-10-19T02:02:17.405Z,11.94
2022-10-19T02:04:45.632Z,11.83
2022-10-19T02:07:12.817Z,11.70
2022-10-19T02:09:39.842Z,11.54
2022-10-19T02:12:09.938Z,11.41
2022-10-19T02:14:43.116Z,11.32
2022-10-19T02:17:14.202Z,11.27
2022-10-19T02:19:41.674Z,11.19
2022-10-19T02:22:09.492Z,11.15
2022-10-19T02:24:37.073Z,11.05
2022-10-19T02:27:05.840Z,11.03
2022-10-19T02:29:34.014Z,10.89
2022-10-19T02:32:01.668Z,10.78
2022-10-19T02:34:28.842Z,10.77
2022-10-19T02:36:55.972Z,10.69
2022-10-19T02:39:23.637Z,10.56
2022-10-19T02:42:04.530Z,10.44
2022-10-19T02:44:48.187Z,10.43
2022-10-19T02:47:18.621Z,10.47
2022-10-19T02:49:46.713Z,10.45
2022-10-19T02:52:14.645Z,10.46
2022-10-19T02:54:43.487Z,10.44
2022-10-19T02:57:23.435Z,10.46
2022-10-19T02:59:50.913Z,10.52
2022-10-19T03:02:19.631Z,10.71
2022-10-19T03:07:20.811Z,11.09
2022-10-19T03:09:48.127Z,11.35
2022-10-19T03:12:15.299Z,11.47
2022-10-19T03:14:42.840Z,11.59
2022-10-19T03:17:10.037Z,11.63
2022-10-19T03:19:37.498Z,11.62
2022-10-19T03:22:05.116Z,11.65
2022-10-19T03:24:32.196Z,11.58
2022-10-19T03:26:59.161Z,11.52
2022-10-19T03:29:26.418Z,11.49
2022-10-19T03:31:53.432Z,11.45
2022-10-19T03:34:20.418Z,11.45
2022-10-19T03:36:47.843Z,11.37
2022-10-19T03:39:16.443Z,11.47
2022-10-19T03:41:44.018Z,11.56
2022-10-19T03:44:11.862Z,11.60
2022-10-19T03:46:39.649Z,11.57
2022-10-19T03:49:07.001Z,11.56
2022-10-19T03:51:34.406Z,11.56
2022-10-19T03:54:08.683Z,11.56
2022-10-19T03:56:36.229Z,11.57
2022-10-19T03:59:04.528Z,11.50
2022-10-19T04:01:34.170Z,11.41
2022-10-19T04:04:05.258Z,11.31
2022-10-19T04:06:36.050Z,11.24
2022-10-19T04:09:04.513Z,11.28
2022-10-19T04:11:32.412Z,11.19
2022-10-19T04:14:00.086Z,11.07
2022-10-19T04:16:28.979Z,11.01
2022-10-19T04:18:56.455Z,11.10
2022-10-19T04:21:27.327Z,11.01
2022-10-19T04:24:08.537Z,10.91
2022-10-19T04:26:39.985Z,10.72
2022-10-19T04:29:07.323Z,10.60
2022-10-19T04:31:34.530Z,10.43
2022-10-19T04:34:01.536Z,10.27
2022-10-19T04:36:28.825Z,10.12
2022-10-19T04:38:55.797Z,10.15
2022-10-19T04:41:23.727Z,10.12
2022-10-19T04:43:59.151Z,10.06
2022-10-19T04:46:27.015Z,9.93
2022-10-19T04:48:55.155Z,9.92
2022-10-19T04:51:22.676Z,9.91
2022-10-19T04:53:50.479Z,9.81
2022-10-19T04:56:26.190Z,9.71
2022-10-19T04:58:56.463Z,9.58
2022-10-19T05:01:24.556Z,9.39
2022-10-19T05:06:30.176Z,9.23
2022-10-19T05:08:57.352Z,9.16
2022-10-19T05:11:24.592Z,9.09
2022-10-19T05:13:51.944Z,9.06
2022-10-19T05:16:21.096Z,9.24
2022-10-19T05:18:59.687Z,9.54
2022-10-19T05:21:28.934Z,9.67
2022-10-19T05:23:56.610Z,9.65
2022-10-19T05:26:25.910Z,9.71
2022-10-19T05:29:04.310Z,9.68
2022-10-19T05:31:33.041Z,9.71
2022-10-19T05:34:01.367Z,9.76
2022-10-19T05:36:34.356Z,9.86
2022-10-19T05:39:06.849Z,9.90
2022-10-19T05:41:34.461Z,10.00
2022-10-19T05:44:03.063Z,10.01
2022-10-19T05:46:31.119Z,10.10
2022-10-19T05:48:58.972Z,10.16
2022-10-19T05:51:27.365Z,10.16
2022-10-19T05:53:55.618Z,10.21
2022-10-19T05:56:27.706Z,10.24
2022-10-19T05:58:56.762Z,10.24
2022-10-19T06:01:23.896Z,10.33
2022-10-19T06:03:52.802Z,10.40
2022-10-19T06:06:19.914Z,10.49
2022-10-19T06:08:47.475Z,10.53
2022-10-19T06:11:40.345Z,10.57
2022-10-19T06:14:09.633Z,10.58
2022-10-19T06:16:37.471Z,10.72
2022-10-19T06:19:05.445Z,10.71
2022-10-19T06:21:33.406Z,10.77
2022-10-19T06:24:03.536Z,10.76
2022-10-19T06:26:32.207Z,10.77
2022-10-19T06:29:00.789Z,10.77
2022-10-19T06:31:29.908Z,10.88
2022-10-19T06:33:56.994Z,10.91
2022-10-19T06:36:27.237Z,11.01
2022-10-19T06:38:54.905Z,11.03
2022-10-19T06:41:22.277Z,11.07
2022-10-19T06:43:51.028Z,11.16
2022-10-19T06:46:20.698Z,11.19
2022-10-19T06:48:52.873Z,11.31
2022-10-19T06:51:20.805Z,11.38
2022-10-19T06:53:48.967Z,11.40
2022-10-19T06:56:17.731Z,11.45
2022-10-19T06:58:45.122Z,11.43
2022-10-19T07:01:13.912Z,11.48
2022-10-19T07:03:41.161Z,11.52
2022-10-19T07:06:10.023Z,11.50
2022-10-19T07:08:39.392Z,11.49
2022-10-19T07:11:10.514Z,11.57
2022-10-19T07:13:37.902Z,11.60
2022-10-19T07:16:14.659Z,11.67
2022-10-19T07:18:45.350Z,11.70
2022-10-19T07:21:15.068Z,11.71
2022-10-19T07:23:43.661Z,11.86
2022-10-19T07:26:15.314Z,11.85
2022-10-19T07:28:45.028Z,11.99
2022-10-19T07:31:14.713Z,12.02
2022-10-19T07:33:41.726Z,12.15
2022-10-19T07:36:10.399Z,12.20
2022-10-19T07:38:37.814Z,12.29
2022-10-19T07:41:11.122Z,12.34
2022-10-19T07:43:38.868Z,12.38
2022-10-19T07:46:08.458Z,12.58
2022-10-19T07:48:35.548Z,12.58
2022-10-19T07:51:05.142Z,12.59
2022-10-19T07:53:32.596Z,12.69
2022-10-19T07:56:13.651Z,12.74
2022-10-19T07:58:41.241Z,12.90
2022-10-19T08:01:15.409Z,13.04
2022-10-19T08:04:31.810Z,13.18
2022-10-19T08:06:30.071Z,13.20
2022-10-19T08:08:57.482Z,13.31
2022-10-19T08:11:30.315Z,13.44
2022-10-19T08:13:59.281Z,13.61
2022-10-19T08:16:39.444Z,13.74
2022-10-19T08:19:09.736Z,13.84
2022-10-19T08:21:37.858Z,14.00
2022-10-19T08:24:05.784Z,14.11
2022-10-19T08:26:35.415Z,14.22
2022-10-19T08:29:04.957Z,14.36
2022-10-19T08:31:38.251Z,14.34
2022-10-19T08:34:05.725Z,14.49
2022-10-19T08:36:35.575Z,14.62
2022-10-19T08:39:04.373Z,14.66
2022-10-19T08:44:34.940Z,14.83
2022-10-19T08:47:34.901Z,14.98
2022-10-19T08:50:05.313Z,15.10
2022-10-19T08:52:34.910Z,15.27
2022-10-19T08:55:09.085Z,15.43
2022-10-19T08:57:50.315Z,15.42
2022-10-19T09:03:55.521Z,15.41
2022-10-19T09:06:29.417Z,15.43
2022-10-19T09:08:57.784Z,15.62
2022-10-19T09:11:28.449Z,15.70
2022-10-19T09:14:05.415Z,15.85
2022-10-19T09:16:36.520Z,16.02
2022-10-19T09:19:16.307Z,16.06
2022-10-19T09:21:47.951Z,16.14
2022-10-19T09:24:18.017Z,16.26
2022-10-19T09:26:53.688Z,16.32
2022-10-19T09:29:45.318Z,16.43
2022-10-19T09:32:16.042Z,16.47
2022-10-19T09:34:48.927Z,16.51
2022-10-19T09:37:24.785Z,16.53
2022-10-19T09:39:55.664Z,16.41
2022-10-19T09:42:26.207Z,16.40
2022-10-19T09:44:54.670Z,16.25
2022-10-19T09:47:40.681Z,16.29
2022-10-19T09:50:23.912Z,16.28
2022-10-19T09:52:53.495Z,16.42
2022-10-19T09:55:26.708Z,16.28
2022-10-19T09:58:04.218Z,16.34
2022-10-19T10:00:37.562Z,16.36
2022-10-19T10:03:06.498Z,16.44
2022-10-19T10:05:39.070Z,16.49
2022-10-19T10:08:15.303Z,16.61
2022-10-19T10:11:34.805Z,16.72
2022-10-19T10:14:24.177Z,16.47
2022-10-19T10:17:16.472Z,16.58
2022-10-19T10:19:59.167Z,16.66
2022-10-19T10:22:32.350Z,16.88
2022-10-19T10:25:00.263Z,16.88
2022-10-19T10:27:38.880Z,16.94
2022-10-19T10:30:16.015Z,16.92
2022-10-19T10:32:49.617Z,16.98
2022-10-19T10:35:18.009Z,17.07
2022-10-19T10:37:47.084Z,17.22
2022-10-19T10:40:27.065Z,17.31
2022-10-19T10:43:16.515Z,17.47
2022-10-19T10:45:48.711Z,17.40
2022-10-19T10:48:28.948Z,17.35
2022-10-19T10:50:57.542Z,17.44
2022-10-19T10:53:33.956Z,17.52
2022-10-19T10:56:01.265Z,17.43
2022-10-19T10:58:35.773Z,17.38
2022-10-19T11:01:07.655Z,17.54
2022-10-19T11:03:36.371Z,17.69
2022-10-19T11:06:03.724Z,17.62
2022-10-19T11:08:38.863Z,17.63
2022-10-19T11:11:20.037Z,17.62
2022-10-19T11:14:04.692Z,17.55
2022-10-19T11:16:35.271Z,17.60
2022-10-19T11:19:12.680Z,17.56
2022-10-19T11:22:06.834Z,17.45
2022-10-19T11:24:54.095Z,17.53
2022-10-19T11:27:27.570Z,17.60
2022-10-19T11:30:00.405Z,17.53
2022-10-19T11:32:34.303Z,17.45
2022-10-19T11:35:04.270Z,17.59
2022-10-19T11:37:49.476Z,17.38
2022-10-19T11:40:54.288Z,17.22
2022-10-19T11:43:42.178Z,17.27
2022-10-19T11:46:43.002Z,17.60
2022-10-19T11:49:44.767Z,17.75
2022-10-19T11:52:47.118Z,17.38
2022-10-19T11:55:37.860Z,17.39
2022-10-19T11:58:18.694Z,16.82
2022-10-19T12:01:03.410Z,16.73
2022-10-19T12:03:43.761Z,17.22
2022-10-19T12:06:39.915Z,17.54
2022-10-19T12:09:19.627Z,17.01
2022-10-19T12:12:08.572Z,16.64
2022-10-19T12:14:39.394Z,16.58
2022-10-19T12:19:51.178Z,17.02
2022-10-19T12:22:25.511Z,16.94
2022-10-19T12:24:55.413Z,17.05
2022-10-19T12:27:29.967Z,16.94
2022-10-19T12:30:04.849Z,16.87
2022-10-19T12:32:40.079Z,16.88
2022-10-19T12:35:34.712Z,16.93
2022-10-19T12:38:26.433Z,16.89
2022-10-19T12:41:17.029Z,16.84
2022-10-19T12:44:01.930Z,16.82
2022-10-19T12:46:47.008Z,16.86
2022-10-19T12:49:45.112Z,16.73
2022-10-19T12:52:13.820Z,16.84
2022-10-19T12:54:42.415Z,16.89
2022-10-19T12:57:27.383Z,17.00
2022-10-19T13:00:18.824Z,16.99
2022-10-19T13:02:47.346Z,17.08
2022-10-19T13:05:25.162Z,17.10
2022-10-19T13:07:52.354Z,16.91
2022-10-19T13:10:22.304Z,16.87
2022-10-19T13:12:49.764Z,16.79
2022-10-19T13:15:39.845Z,16.85
2022-10-19T13:18:16.833Z,16.87
2022-10-19T13:20:53.749Z,16.89
2022-10-19T13:23:26.762Z,16.94
2022-10-19T13:26:24.446Z,16.98
2022-10-19T13:28:53.238Z,17.11
2022-10-19T13:31:31.340Z,17.02
2022-10-19T13:33:58.743Z,17.06
2022-10-19T13:36:26.304Z,16.97
2022-10-19T13:38:59.306Z,16.96
2022-10-19T13:41:28.588Z,16.89
2022-10-19T13:44:02.039Z,16.80
2022-10-19T13:46:29.240Z,16.66
2022-10-19T13:49:26.744Z,16.61
2022-10-19T13:52:34.332Z,16.63
2022-10-19T13:55:16.811Z,16.62
2022-10-19T13:58:31.660Z,16.41
2022-10-19T14:01:31.156Z,16.38
2022-10-19T14:04:21.037Z,16.30
2022-10-19T14:06:53.726Z,16.38
2022-10-19T14:09:44.071Z,16.24
2022-10-19T14:12:24.053Z,16.22
2022-10-19T14:14:53.855Z,16.17
2022-10-19T14:17:27.976Z,16.00
2022-10-19T14:19:57.995Z,16.01
2022-10-19T14:22:33.698Z,15.89
2022-10-19T14:25:03.785Z,15.83
2022-10-19T14:27:31.664Z,15.68
2022-10-19T14:29:59.137Z,15.59
2022-10-19T14:32:28.713Z,15.55
2022-10-19T14:37:36.830Z,15.29
2022-10-19T14:40:08.301Z,15.26
2022-10-19T14:42:43.876Z,14.99
2022-10-19T14:45:15.118Z,14.79
2022-10-19T14:47:53.508Z,14.64
2022-10-19T14:50:23.377Z,14.66
2022-10-19T14:52:52.224Z,14.75
2022-10-19T14:55:19.801Z,14.63
2022-10-19T14:57:50.349Z,14.49
2022-10-19T15:00:32.336Z,14.42
2022-10-19T15:03:01.677Z,14.34
2022-10-19T15:05:32.234Z,14.33
2022-10-19T15:08:07.477Z,14.35
2022-10-19T15:10:43.265Z,14.36
2022-10-19T15:13:28.652Z,14.38
2022-10-19T15:15:56.148Z,14.32
2022-10-19T15:18:47.526Z,14.17
2022-10-19T15:21:14.977Z,14.13
2022-10-19T15:23:49.913Z,13.96
2022-10-19T15:26:21.105Z,13.85
2022-10-19T15:28:49.206Z,13.75
2022-10-19T15:31:19.933Z,13.69
2022-10-19T15:33:52.650Z,13.60
2022-10-19T15:36:21.265Z,13.52
2022-10-19T15:39:25.152Z,13.39
2022-10-19T15:41:55.833Z,13.31
2022-10-19T15:44:43.473Z,13.26
2022-10-19T15:47:18.229Z,13.21
2022-10-19T15:49:45.820Z,13.11
2022-10-19T15:52:17.685Z,12.99
2022-10-19T15:54:47.887Z,12.94
2022-10-19T15:57:31.669Z,12.84
2022-10-19T16:00:01.177Z,12.64
2022-10-19T16:02:31.094Z,12.57
2022-10-19T16:04:58.623Z,12.45
2022-10-19T16:07:28.231Z,12.37
2022-10-19T16:09:55.451Z,12.36
2022-10-19T16:12:23.577Z,12.31
2022-10-19T16:14:50.611Z,12.22
2022-10-19T16:17:17.734Z,12.19
2022-10-19T16:19:45.553Z,12.17
2022-10-19T16:22:13.833Z,12.12
2022-10-19T16:24:41.610Z,12.05
2022-10-19T16:27:09.504Z,11.98
2022-10-19T16:29:36.516Z,11.96
2022-10-19T16:32:03.712Z,11.92
2022-10-19T16:34:31.036Z,11.88
2022-10-19T16:37:01.402Z,11.86
2022-10-19T16:39:31.619Z,11.84
2022-10-19T16:41:58.623Z,11.78
2022-10-19T16:44:25.676Z,11.72
2022-10-19T16:46:52.951Z,11.69
2022-10-19T16:49:20.051Z,11.72
2022-10-19T16:51:47.160Z,11.70
2022-10-19T16:54:15.588Z,11.69
2022-10-19T16:56:47.113Z,11.64
2022-10-19T16:59:16.592Z,11.58
2022-10-19T17:01:44.992Z,11.49
2022-10-19T17:04:13.132Z,11.46
2022-10-19T17:06:40.925Z,11.35
2022-10-19T17:09:40.707Z,11.33
2022-10-19T17:11:55.857Z,11.25
2022-10-19T17:14:22.894Z,11.19
2022-10-19T17:16:50.099Z,11.14
2022-10-19T17:19:17.707Z,11.10
2022-10-19T17:21:44.673Z,10.95
2022-10-19T17:24:21.630Z,10.92
2022-10-19T17:26:51.398Z,10.86
2022-10-19T17:29:19.030Z,10.80
2022-10-19T17:31:46.518Z,10.75
2022-10-19T17:34:14.085Z,10.75
2022-10-19T17:36:44.506Z,10.71
2022-10-19T17:39:15.292Z,10.62
2022-10-19T17:41:42.628Z,10.57
2022-10-19T17:44:09.648Z,10.56
2022-10-19T17:46:36.760Z,10.53
2022-10-19T17:49:05.115Z,10.50
2022-10-19T17:51:33.925Z,10.50
2022-10-19T17:54:03.709Z,10.45
2022-10-19T17:56:31.565Z,10.41
2022-10-19T17:58:59.279Z,10.36
2022-10-19T18:01:26.963Z,10.32
2022-10-19T18:03:54.510Z,10.24
2022-10-19T18:06:25.432Z,10.23
2022-10-19T18:08:54.435Z,10.19
2022-10-19T18:11:24.149Z,10.23
2022-10-19T18:13:55.131Z,10.24
2022-10-19T18:16:34.553Z,10.24
2022-10-19T18:19:03.641Z,10.24
2022-10-19T18:21:35.007Z,10.18
2022-10-19T18:24:02.977Z,10.13
2022-10-19T18:26:31.915Z,10.08
2022-10-19T18:29:00.228Z,10.08
2022-10-19T18:31:31.595Z,9.99
2022-10-19T18:34:04.209Z,9.92
2022-10-19T18:36:32.644Z,9.84
2022-10-19T18:39:02.934Z,9.84
2022-10-19T18:41:30.316Z,9.81
2022-10-19T18:44:04.967Z,9.72
2022-10-19T18:46:33.877Z,9.68
2022-10-19T18:49:01.680Z,9.58
2022-10-19T18:51:29.481Z,9.57
2022-10-19T18:53:56.806Z,9.53
2022-10-19T18:56:24.016Z,9.50
2022-10-19T18:58:51.286Z,9.41
2022-10-19T19:01:23.970Z,9.34
2022-10-19T19:03:52.853Z,9.32
2022-10-19T19:06:22.496Z,9.29
2022-10-19T19:08:52.384Z,9.25
2022-10-19T19:11:22.437Z,9.23
2022-10-19T19:13:51.888Z,9.14
2022-10-19T19:16:19.884Z,9.19
2022-10-19T19:18:46.950Z,9.10
2022-10-19T19:21:22.293Z,9.09
2022-10-19T19:23:50.761Z,9.02
2022-10-19T19:26:19.070Z,8.99
2022-10-19T19:28:49.046Z,8.92
2022-10-19T19:31:18.814Z,8.88
2022-10-19T19:33:46.991Z,8.78
2022-10-19T19:36:16.040Z,8.77
2022-10-19T19:38:43.497Z,8.68
2022-10-19T19:41:14.477Z,8.72
2022-10-19T19:43:42.668Z,8.67
2022-10-19T19:46:16.538Z,8.60
2022-10-19T19:48:45.871Z,8.53
2022-10-19T19:51:19.598Z,8.44
2022-10-19T19:53:47.716Z,8.40
2022-10-19T19:56:17.029Z,8.30
2022-10-19T19:58:46.995Z,8.38
2022-10-19T20:01:18.154Z,8.45
2022-10-19T20:03:46.127Z,8.44
2022-10-19T20:06:14.689Z,8.39
2022-10-19T20:08:41.901Z,8.52
2022-10-19T20:11:11.793Z,8.57
2022-10-19T20:13:39.273Z,8.55
2022-10-19T20:16:17.689Z,8.53
2022-10-19T20:18:47.070Z,8.46
2022-10-19T20:21:15.211Z,8.35
2022-10-19T20:23:46.407Z,8.29
2022-10-19T20:26:17.741Z,8.27
2022-10-19T20:28:45.227Z,8.25
2022-10-19T20:31:13.451Z,8.22
2022-10-19T20:33:42.662Z,8.17
2022-10-19T20:36:17.586Z,8.07
2022-10-19T20:38:56.102Z,8.02
2022-10-19T20:41:25.796Z,8.04
2022-10-19T20:43:54.260Z,8.06
2022-10-19T20:46:24.286Z,8.00
2022-10-19T20:48:52.040Z,7.93
2022-10-19T20:51:30.618Z,7.89
2022-10-19T20:54:01.366Z,7.86
2022-10-19T20:56:31.982Z,7.79
2022-10-19T20:59:00.865Z,7.75
2022-10-19T21:01:30.061Z,7.74
2022-10-19T21:04:00.496Z,7.73
2022-10-19T21:06:29.524Z,7.70
2022-10-19T21:08:56.809Z,7.71
2022-10-19T21:11:29.553Z,7.72
2022-10-19T21:13:58.947Z,7.67
2022-10-19T21:16:30.620Z,7.73
2022-10-19T21:18:57.665Z,7.69
2022-10-19T21:21:27.288Z,7.64
2022-10-19T21:24:04.638Z,7.56
2022-10-19T21:26:33.128Z,7.54
2022-10-19T21:29:01.015Z,7.44
2022-10-19T21:31:28.348Z,7.40
2022-10-19T21:33:55.416Z,7.34
2022-10-19T21:36:25.158Z,7.35
2022-10-19T21:38:52.143Z,7.36
2022-10-19T21:41:23.797Z,7.37
2022-10-19T21:43:54.631Z,7.37
2022-10-19T21:46:22.709Z,7.31
2022-10-19T21:48:50.214Z,7.33
2022-10-19T21:51:17.400Z,7.33
2022-10-19T21:53:44.606Z,7.37
2022-10-19T21:56:11.581Z,7.36
2022-10-19T21:58:38.839Z,7.34
2022-10-19T22:01:07.233Z,7.31
2022-10-19T22:03:34.750Z,7.28
2022-10-19T22:06:01.836Z,7.33
2022-10-19T22:08:28.863Z,7.31
2022-10-19T22:10:56.521Z,7.27
2022-10-19T22:13:23.531Z,7.28
2022-10-19T22:15:50.524Z,7.22
2022-10-19T22:18:17.794Z,7.16
2022-10-19T22:20:44.806Z,7.17
2022-10-19T22:23:11.828Z,7.21
2022-10-19T22:25:39.087Z,7.21
2022-10-19T22:28:06.240Z,7.22
2022-10-19T22:30:33.536Z,7.19
2022-10-19T22:33:01.010Z,7.20
2022-10-19T22:35:28.006Z,7.18
2022-10-19T22:37:54.977Z,7.22
2022-10-19T22:40:22.243Z,7.25
2022-10-19T22:42:49.176Z,7.15
2022-10-19T22:45:16.225Z,7.17
2022-10-19T22:47:43.513Z,7.11
2022-10-19T22:50:11.875Z,7.05
2022-10-19T22:52:39.159Z,7.04
2022-10-19T22:55:06.740Z,7.02
2022-10-19T22:57:33.751Z,7.00
2022-10-19T23:00:00.717Z,6.92
2022-10-19T23:02:29.437Z,6.88
2022-10-19T23:04:56.651Z,6.86
2022-10-19T23:07:23.666Z,6.85
2022-10-19T23:09:50.922Z,6.80
2022-10-19T23:12:18.105Z,6.77
2022-10-19T23:14:45.138Z,6.78
2022-10-19T23:17:12.384Z,6.75
2022-10-19T23:19:39.375Z,6.71
2022-10-19T23:22:06.413Z,6.64
2022-10-19T23:24:33.707Z,6.59
2022-10-19T23:27:00.689Z,6.59
2022-10-19T23:29:27.674Z,6.52
2022-10-19T23:31:55.033Z,6.43
2022-10-19T23:34:22.091Z,6.42
2022-10-19T23:36:49.097Z,6.38
2022-10-19T23:39:16.451Z,6.40
2022-10-19T23:41:43.753Z,6.38
2022-10-19T23:44:10.852Z,6.40
2022-10-19T23:46:38.245Z,6.40
2022-10-19T23:49:05.429Z,6.42
2022-10-19T23:51:32.466Z,6.39
2022-10-19T23:53:59.749Z,6.34
2022-10-19T23:56:28.970Z,6.36
2022-10-19T23:58:56.364Z,6.39
